Aviation Digital Data Service (ADDS)

Output produced by METARs form (0210 UTC 22 September 2014)
found at http://aviationweather.gov/adds/metars/
 
KRUT 212336Z 2200/2224 14006KT P6SM OVC130 
     FM220300 16006KT 6SM -SHRA OVC050 
     FM220700 27005KT P6SM OVC060 
     FM220900 29009KT P6SM OVC025 
     FM221400 29014G20KT P6SM OVC020 AMD LTD TO CLD VIS AND WIND